sensor_id;sensor_type;location;lat;lon;timestamp;P1;durP1;ratioP1;P2;durP2;ratioP2
21356;SDS011;10836;53.068;18.234;2023-01-29T00:02:13;32.23;;;14.80;;
21356;SDS011;10836;53.068;18.234;2023-01-29T00:04:40;30.97;;;15.17;;
21356;SDS011;10836;53.068;18.234;2023-01-29T00:07:07;31.93;;;14.57;;
21356;SDS011;10836;53.068;18.234;2023-01-29T00:09:34;28.47;;;14.30;;
21356;SDS011;10836;53.068;18.234;2023-01-29T00:12:01;31.13;;;14.73;;
21356;SDS011;10836;53.068;18.234;2023-01-29T00:14:29;32.50;;;15.73;;
21356;SDS011;10836;53.068;18.234;2023-01-29T00:16:56;29.83;;;14.43;;
21356;SDS011;10836;53.068;18.234;2023-01-29T00:19:23;32.37;;;14.00;;
21356;SDS011;10836;53.068;18.234;2023-01-29T00:21:50;33.90;;;14.57;;
21356;SDS011;10836;53.068;18.234;2023-01-29T00:24:17;31.03;;;15.37;;
21356;SDS011;10836;53.068;18.234;2023-01-29T00:26:43;30.10;;;15.80;;
21356;SDS011;10836;53.068;18.234;2023-01-29T00:29:11;33.37;;;15.83;;
21356;SDS011;10836;53.068;18.234;2023-01-29T00:31:38;27.90;;;13.50;;
21356;SDS011;10836;53.068;18.234;2023-01-29T00:34:06;27.17;;;13.70;;
21356;SDS011;10836;53.068;18.234;2023-01-29T00:36:32;28.70;;;13.93;;
21356;SDS011;10836;53.068;18.234;2023-01-29T00:39:00;30.57;;;13.90;;
21356;SDS011;10836;53.068;18.234;2023-01-29T00:41:28;30.63;;;13.77;;
21356;SDS011;10836;53.068;18.234;2023-01-29T00:44:16;26.50;;;13.13;;
21356;SDS011;10836;53.068;18.234;2023-01-29T00:47:02;31.13;;;13.33;;
21356;SDS011;10836;53.068;18.234;2023-01-29T00:49:30;27.97;;;12.90;;
21356;SDS011;10836;53.068;18.234;2023-01-29T00:51:57;31.57;;;13.53;;
21356;SDS011;10836;53.068;18.234;2023-01-29T00:54:42;24.53;;;12.37;;
21356;SDS011;10836;53.068;18.234;2023-01-29T00:57:09;29.60;;;13.33;;
21356;SDS011;10836;53.068;18.234;2023-01-29T00:59:36;27.47;;;12.07;;
21356;SDS011;10836;53.068;18.234;2023-01-29T01:02:03;26.13;;;11.50;;
21356;SDS011;10836;53.068;18.234;2023-01-29T01:04:49;25.00;;;11.57;;
21356;SDS011;10836;53.068;18.234;2023-01-29T01:07:16;25.57;;;11.73;;
21356;SDS011;10836;53.068;18.234;2023-01-29T01:09:43;25.20;;;11.43;;
21356;SDS011;10836;53.068;18.234;2023-01-29T01:12:29;28.27;;;12.17;;
21356;SDS011;10836;53.068;18.234;2023-01-29T01:14:56;23.77;;;10.27;;
21356;SDS011;10836;53.068;18.234;2023-01-29T01:17:23;22.03;;;11.00;;
21356;SDS011;10836;53.068;18.234;2023-01-29T01:19:50;21.57;;;10.43;;
21356;SDS011;10836;53.068;18.234;2023-01-29T01:22:17;27.13;;;11.40;;
21356;SDS011;10836;53.068;18.234;2023-01-29T01:24:45;22.97;;;10.70;;
21356;SDS011;10836;53.068;18.234;2023-01-29T01:27:12;23.57;;;10.37;;
21356;SDS011;10836;53.068;18.234;2023-01-29T01:29:39;19.27;;;9.67;;
21356;SDS011;10836;53.068;18.234;2023-01-29T01:32:06;21.17;;;9.00;;
21356;SDS011;10836;53.068;18.234;2023-01-29T01:34:33;19.97;;;8.43;;
21356;SDS011;10836;53.068;18.234;2023-01-29T01:37:01;18.00;;;9.03;;
21356;SDS011;10836;53.068;18.234;2023-01-29T01:39:28;22.50;;;9.10;;
21356;SDS011;10836;53.068;18.234;2023-01-29T01:41:55;21.00;;;9.60;;
21356;SDS011;10836;53.068;18.234;2023-01-29T01:47:25;19.57;;;8.17;;
21356;SDS011;10836;53.068;18.234;2023-01-29T01:50:02;18.93;;;8.33;;
21356;SDS011;10836;53.068;18.234;2023-01-29T01:52:34;17.90;;;7.63;;
21356;SDS011;10836;53.068;18.234;2023-01-29T01:55:04;15.33;;;7.83;;
21356;SDS011;10836;53.068;18.234;2023-01-29T01:57:32;16.83;;;7.63;;
21356;SDS011;10836;53.068;18.234;2023-01-29T02:00:02;13.60;;;6.73;;
21356;SDS011;10836;53.068;18.234;2023-01-29T02:02:42;17.50;;;7.60;;
21356;SDS011;10836;53.068;18.234;2023-01-29T02:05:30;15.57;;;6.50;;
21356;SDS011;10836;53.068;18.234;2023-01-29T02:08:29;19.47;;;6.53;;
21356;SDS011;10836;53.068;18.234;2023-01-29T02:11:20;17.07;;;6.23;;
21356;SDS011;10836;53.068;18.234;2023-01-29T02:13:47;18.37;;;6.60;;
21356;SDS011;10836;53.068;18.234;2023-01-29T02:16:24;12.20;;;6.17;;
21356;SDS011;10836;53.068;18.234;2023-01-29T02:18:51;15.97;;;6.13;;
21356;SDS011;10836;53.068;18.234;2023-01-29T02:26:28;12.80;;;5.77;;
21356;SDS011;10836;53.068;18.234;2023-01-29T02:29:17;11.63;;;5.53;;
21356;SDS011;10836;53.068;18.234;2023-01-29T02:31:57;12.30;;;5.63;;
21356;SDS011;10836;53.068;18.234;2023-01-29T02:37:21;12.50;;;5.87;;
21356;SDS011;10836;53.068;18.234;2023-01-29T02:40:06;12.57;;;5.60;;
21356;SDS011;10836;53.068;18.234;2023-01-29T02:42:42;11.73;;;5.83;;
21356;SDS011;10836;53.068;18.234;2023-01-29T02:45:31;13.13;;;5.40;;
21356;SDS011;10836;53.068;18.234;2023-01-29T02:48:07;13.57;;;5.70;;
21356;SDS011;10836;53.068;18.234;2023-01-29T02:50:42;14.67;;;5.43;;
21356;SDS011;10836;53.068;18.234;2023-01-29T02:53:20;11.87;;;5.43;;
21356;SDS011;10836;53.068;18.234;2023-01-29T02:58:30;12.00;;;5.57;;
21356;SDS011;10836;53.068;18.234;2023-01-29T03:01:06;11.63;;;5.90;;
21356;SDS011;10836;53.068;18.234;2023-01-29T03:03:41;12.63;;;5.97;;
21356;SDS011;10836;53.068;18.234;2023-01-29T03:06:14;13.90;;;5.83;;
21356;SDS011;10836;53.068;18.234;2023-01-29T03:08:51;14.73;;;5.47;;
21356;SDS011;10836;53.068;18.234;2023-01-29T03:11:24;11.07;;;5.40;;
21356;SDS011;10836;53.068;18.234;2023-01-29T03:14:07;11.77;;;5.47;;
21356;SDS011;10836;53.068;18.234;2023-01-29T03:16:39;12.87;;;5.67;;
21356;SDS011;10836;53.068;18.234;2023-01-29T03:19:13;14.30;;;5.57;;
21356;SDS011;10836;53.068;18.234;2023-01-29T03:21:51;13.67;;;5.73;;
21356;SDS011;10836;53.068;18.234;2023-01-29T03:24:40;10.30;;;5.20;;
21356;SDS011;10836;53.068;18.234;2023-01-29T03:27:33;13.30;;;5.37;;
21356;SDS011;10836;53.068;18.234;2023-01-29T03:30:31;12.27;;;5.70;;
21356;SDS011;10836;53.068;18.234;2023-01-29T03:33:28;10.73;;;4.80;;
21356;SDS011;10836;53.068;18.234;2023-01-29T03:36:00;14.43;;;5.57;;
21356;SDS011;10836;53.068;18.234;2023-01-29T03:38:34;13.93;;;6.00;;
21356;SDS011;10836;53.068;18.234;2023-01-29T03:41:03;10.90;;;5.27;;
21356;SDS011;10836;53.068;18.234;2023-01-29T03:46:20;14.43;;;6.47;;
21356;SDS011;10836;53.068;18.234;2023-01-29T03:48:59;12.87;;;5.77;;
21356;SDS011;10836;53.068;18.234;2023-01-29T03:51:36;15.47;;;5.70;;
21356;SDS011;10836;53.068;18.234;2023-01-29T04:02:26;12.67;;;5.17;;
21356;SDS011;10836;53.068;18.234;2023-01-29T04:05:03;15.60;;;6.23;;
21356;SDS011;10836;53.068;18.234;2023-01-29T04:07:44;13.63;;;5.63;;
21356;SDS011;10836;53.068;18.234;2023-01-29T04:10:18;13.13;;;5.83;;
21356;SDS011;10836;53.068;18.234;2023-01-29T04:12:58;11.73;;;5.17;;
21356;SDS011;10836;53.068;18.234;2023-01-29T04:15:30;11.37;;;5.30;;
21356;SDS011;10836;53.068;18.234;2023-01-29T04:18:02;13.90;;;5.40;;
21356;SDS011;10836;53.068;18.234;2023-01-29T04:20:39;10.73;;;5.07;;
21356;SDS011;10836;53.068;18.234;2023-01-29T04:23:17;9.83;;;5.00;;
21356;SDS011;10836;53.068;18.234;2023-01-29T04:25:51;10.67;;;5.03;;
21356;SDS011;10836;53.068;18.234;2023-01-29T04:28:58;12.90;;;5.23;;
21356;SDS011;10836;53.068;18.234;2023-01-29T04:31:52;14.90;;;5.50;;
21356;SDS011;10836;53.068;18.234;2023-01-29T04:34:33;11.90;;;5.30;;
21356;SDS011;10836;53.068;18.234;2023-01-29T04:42:43;13.37;;;5.47;;
21356;SDS011;10836;53.068;18.234;2023-01-29T04:50:59;10.63;;;5.13;;
21356;SDS011;10836;53.068;18.234;2023-01-29T04:53:43;10.67;;;5.20;;
21356;SDS011;10836;53.068;18.234;2023-01-29T04:56:16;9.73;;;5.20;;
21356;SDS011;10836;53.068;18.234;2023-01-29T04:59:10;12.50;;;5.33;;
21356;SDS011;10836;53.068;18.234;2023-01-29T05:01:40;11.57;;;5.83;;
21356;SDS011;10836;53.068;18.234;2023-01-29T05:04:08;19.93;;;6.97;;
21356;SDS011;10836;53.068;18.234;2023-01-29T05:06:39;10.77;;;5.27;;
21356;SDS011;10836;53.068;18.234;2023-01-29T05:09:08;10.83;;;5.50;;
21356;SDS011;10836;53.068;18.234;2023-01-29T05:11:35;13.27;;;5.17;;
21356;SDS011;10836;53.068;18.234;2023-01-29T05:14:03;14.00;;;6.07;;
21356;SDS011;10836;53.068;18.234;2023-01-29T05:16:51;11.77;;;5.80;;
21356;SDS011;10836;53.068;18.234;2023-01-29T05:19:21;12.67;;;5.43;;
21356;SDS011;10836;53.068;18.234;2023-01-29T05:21:48;10.20;;;5.50;;
21356;SDS011;10836;53.068;18.234;2023-01-29T05:24:17;12.67;;;5.73;;
21356;SDS011;10836;53.068;18.234;2023-01-29T05:26:47;12.33;;;6.30;;
21356;SDS011;10836;53.068;18.234;2023-01-29T05:29:34;14.60;;;6.83;;
21356;SDS011;10836;53.068;18.234;2023-01-29T05:32:01;15.77;;;5.90;;
21356;SDS011;10836;53.068;18.234;2023-01-29T05:34:29;16.40;;;6.80;;
21356;SDS011;10836;53.068;18.234;2023-01-29T05:36:56;11.13;;;6.47;;
21356;SDS011;10836;53.068;18.234;2023-01-29T05:39:23;11.70;;;6.77;;
21356;SDS011;10836;53.068;18.234;2023-01-29T05:41:50;17.53;;;6.50;;
21356;SDS011;10836;53.068;18.234;2023-01-29T05:44:17;16.13;;;7.57;;
21356;SDS011;10836;53.068;18.234;2023-01-29T05:46:44;12.63;;;6.80;;
21356;SDS011;10836;53.068;18.234;2023-01-29T05:49:11;15.83;;;7.57;;
21356;SDS011;10836;53.068;18.234;2023-01-29T05:51:39;14.67;;;7.83;;
21356;SDS011;10836;53.068;18.234;2023-01-29T05:54:05;15.70;;;7.53;;
21356;SDS011;10836;53.068;18.234;2023-01-29T05:56:32;17.83;;;7.83;;
21356;SDS011;10836;53.068;18.234;2023-01-29T05:58:59;15.20;;;8.13;;
21356;SDS011;10836;53.068;18.234;2023-01-29T06:01:26;13.90;;;7.90;;
21356;SDS011;10836;53.068;18.234;2023-01-29T06:03:53;14.97;;;8.17;;
21356;SDS011;10836;53.068;18.234;2023-01-29T06:06:20;18.67;;;8.87;;
21356;SDS011;10836;53.068;18.234;2023-01-29T06:08:47;16.00;;;8.80;;
21356;SDS011;10836;53.068;18.234;2023-01-29T06:11:15;21.27;;;8.97;;
21356;SDS011;10836;53.068;18.234;2023-01-29T06:13:44;14.97;;;7.97;;
21356;SDS011;10836;53.068;18.234;2023-01-29T06:16:11;22.20;;;9.47;;
21356;SDS011;10836;53.068;18.234;2023-01-29T06:18:39;18.13;;;9.47;;
21356;SDS011;10836;53.068;18.234;2023-01-29T06:21:07;16.43;;;9.77;;
21356;SDS011;10836;53.068;18.234;2023-01-29T06:23:36;16.27;;;9.50;;
21356;SDS011;10836;53.068;18.234;2023-01-29T06:26:05;18.57;;;9.37;;
21356;SDS011;10836;53.068;18.234;2023-01-29T06:28:33;15.33;;;8.90;;
21356;SDS011;10836;53.068;18.234;2023-01-29T06:31:01;17.43;;;9.80;;
21356;SDS011;10836;53.068;18.234;2023-01-29T06:33:49;20.33;;;9.80;;
21356;SDS011;10836;53.068;18.234;2023-01-29T06:36:16;21.17;;;10.67;;
21356;SDS011;10836;53.068;18.234;2023-01-29T06:38:43;20.73;;;9.77;;
21356;SDS011;10836;53.068;18.234;2023-01-29T06:41:11;21.67;;;10.47;;
21356;SDS011;10836;53.068;18.234;2023-01-29T06:43:39;18.67;;;10.13;;
21356;SDS011;10836;53.068;18.234;2023-01-29T06:46:09;20.83;;;10.10;;
21356;SDS011;10836;53.068;18.234;2023-01-29T06:48:36;21.33;;;10.40;;
21356;SDS011;10836;53.068;18.234;2023-01-29T06:51:04;17.83;;;10.17;;
21356;SDS011;10836;53.068;18.234;2023-01-29T06:53:33;23.23;;;11.03;;
21356;SDS011;10836;53.068;18.234;2023-01-29T06:56:01;19.03;;;9.97;;
21356;SDS011;10836;53.068;18.234;2023-01-29T06:58:28;16.90;;;9.40;;
21356;SDS011;10836;53.068;18.234;2023-01-29T07:01:08;18.47;;;9.93;;
21356;SDS011;10836;53.068;18.234;2023-01-29T07:03:50;16.37;;;9.70;;
21356;SDS011;10836;53.068;18.234;2023-01-29T07:06:18;16.90;;;9.33;;
21356;SDS011;10836;53.068;18.234;2023-01-29T07:08:45;20.87;;;10.03;;
21356;SDS011;10836;53.068;18.234;2023-01-29T07:11:12;16.70;;;9.73;;
21356;SDS011;10836;53.068;18.234;2023-01-29T07:13:39;18.73;;;8.67;;
21356;SDS011;10836;53.068;18.234;2023-01-29T07:16:06;18.50;;;10.17;;
21356;SDS011;10836;53.068;18.234;2023-01-29T07:18:33;17.13;;;9.90;;
21356;SDS011;10836;53.068;18.234;2023-01-29T07:21:02;20.20;;;10.37;;
21356;SDS011;10836;53.068;18.234;2023-01-29T07:23:32;20.90;;;12.03;;
21356;SDS011;10836;53.068;18.234;2023-01-29T07:26:01;20.57;;;10.23;;
21356;SDS011;10836;53.068;18.234;2023-01-29T07:28:29;22.43;;;10.90;;
21356;SDS011;10836;53.068;18.234;2023-01-29T07:30:56;22.10;;;11.40;;
21356;SDS011;10836;53.068;18.234;2023-01-29T07:33:24;17.77;;;9.83;;
21356;SDS011;10836;53.068;18.234;2023-01-29T07:35:51;20.50;;;10.80;;
21356;SDS011;10836;53.068;18.234;2023-01-29T07:38:19;19.03;;;11.27;;
21356;SDS011;10836;53.068;18.234;2023-01-29T07:40:46;22.30;;;10.90;;
21356;SDS011;10836;53.068;18.234;2023-01-29T07:43:13;20.03;;;10.80;;
21356;SDS011;10836;53.068;18.234;2023-01-29T07:45:40;18.00;;;10.10;;
21356;SDS011;10836;53.068;18.234;2023-01-29T07:48:09;18.80;;;10.73;;
21356;SDS011;10836;53.068;18.234;2023-01-29T07:50:38;23.97;;;11.90;;
21356;SDS011;10836;53.068;18.234;2023-01-29T07:53:05;20.07;;;10.60;;
21356;SDS011;10836;53.068;18.234;2023-01-29T07:55:33;25.50;;;12.07;;
21356;SDS011;10836;53.068;18.234;2023-01-29T07:58:01;19.73;;;11.70;;
21356;SDS011;10836;53.068;18.234;2023-01-29T08:00:30;22.47;;;11.70;;
21356;SDS011;10836;53.068;18.234;2023-01-29T08:03:01;21.17;;;10.70;;
21356;SDS011;10836;53.068;18.234;2023-01-29T08:05:32;21.20;;;11.13;;
21356;SDS011;10836;53.068;18.234;2023-01-29T08:07:59;21.93;;;11.67;;
21356;SDS011;10836;53.068;18.234;2023-01-29T08:10:33;20.20;;;9.77;;
21356;SDS011;10836;53.068;18.234;2023-01-29T08:13:02;23.43;;;11.73;;
21356;SDS011;10836;53.068;18.234;2023-01-29T08:15:30;20.87;;;10.60;;
21356;SDS011;10836;53.068;18.234;2023-01-29T08:17:58;20.50;;;11.20;;
21356;SDS011;10836;53.068;18.234;2023-01-29T08:20:26;17.43;;;9.97;;
21356;SDS011;10836;53.068;18.234;2023-01-29T08:22:57;22.57;;;11.20;;
21356;SDS011;10836;53.068;18.234;2023-01-29T08:25:26;16.93;;;10.50;;
21356;SDS011;10836;53.068;18.234;2023-01-29T08:27:54;25.97;;;12.27;;
21356;SDS011;10836;53.068;18.234;2023-01-29T08:30:24;19.03;;;10.57;;
21356;SDS011;10836;53.068;18.234;2023-01-29T08:32:55;19.80;;;10.33;;
21356;SDS011;10836;53.068;18.234;2023-01-29T08:35:22;17.53;;;10.03;;
21356;SDS011;10836;53.068;18.234;2023-01-29T08:37:53;20.60;;;10.37;;
21356;SDS011;10836;53.068;18.234;2023-01-29T08:40:21;20.47;;;10.37;;
21356;SDS011;10836;53.068;18.234;2023-01-29T08:42:48;18.80;;;10.57;;
21356;SDS011;10836;53.068;18.234;2023-01-29T08:45:15;21.07;;;10.80;;
21356;SDS011;10836;53.068;18.234;2023-01-29T08:47:46;18.93;;;11.00;;
21356;SDS011;10836;53.068;18.234;2023-01-29T08:50:15;18.37;;;11.20;;
21356;SDS011;10836;53.068;18.234;2023-01-29T08:52:43;17.43;;;10.17;;
21356;SDS011;10836;53.068;18.234;2023-01-29T08:55:11;21.57;;;10.60;;
21356;SDS011;10836;53.068;18.234;2023-01-29T08:57:38;18.13;;;9.93;;
21356;SDS011;10836;53.068;18.234;2023-01-29T09:00:06;17.73;;;10.33;;
21356;SDS011;10836;53.068;18.234;2023-01-29T09:02:35;21.40;;;11.37;;
21356;SDS011;10836;53.068;18.234;2023-01-29T09:05:02;20.50;;;11.00;;
21356;SDS011;10836;53.068;18.234;2023-01-29T09:07:29;17.50;;;10.37;;
21356;SDS011;10836;53.068;18.234;2023-01-29T09:09:56;19.60;;;10.80;;
21356;SDS011;10836;53.068;18.234;2023-01-29T09:12:23;18.97;;;10.20;;
21356;SDS011;10836;53.068;18.234;2023-01-29T09:14:50;20.10;;;10.67;;
21356;SDS011;10836;53.068;18.234;2023-01-29T09:17:17;20.43;;;10.93;;
21356;SDS011;10836;53.068;18.234;2023-01-29T09:19:44;17.10;;;11.07;;
21356;SDS011;10836;53.068;18.234;2023-01-29T09:22:11;23.13;;;11.33;;
21356;SDS011;10836;53.068;18.234;2023-01-29T09:24:38;20.17;;;10.87;;
21356;SDS011;10836;53.068;18.234;2023-01-29T09:27:05;26.13;;;13.03;;
21356;SDS011;10836;53.068;18.234;2023-01-29T09:29:32;20.67;;;11.90;;
21356;SDS011;10836;53.068;18.234;2023-01-29T09:32:02;18.67;;;11.13;;
21356;SDS011;10836;53.068;18.234;2023-01-29T09:34:30;20.13;;;11.67;;
21356;SDS011;10836;53.068;18.234;2023-01-29T09:36:57;22.23;;;12.23;;
21356;SDS011;10836;53.068;18.234;2023-01-29T09:39:24;23.53;;;12.30;;
21356;SDS011;10836;53.068;18.234;2023-01-29T09:42:07;23.17;;;13.20;;
21356;SDS011;10836;53.068;18.234;2023-01-29T09:44:52;21.63;;;12.00;;
21356;SDS011;10836;53.068;18.234;2023-01-29T09:47:36;25.60;;;12.23;;
21356;SDS011;10836;53.068;18.234;2023-01-29T09:50:14;25.53;;;12.20;;
21356;SDS011;10836;53.068;18.234;2023-01-29T09:55:28;22.90;;;12.90;;
21356;SDS011;10836;53.068;18.234;2023-01-29T09:57:58;25.23;;;12.23;;
21356;SDS011;10836;53.068;18.234;2023-01-29T10:00:33;22.60;;;12.63;;
21356;SDS011;10836;53.068;18.234;2023-01-29T10:05:58;23.70;;;12.70;;
21356;SDS011;10836;53.068;18.234;2023-01-29T10:08:47;23.83;;;13.50;;
21356;SDS011;10836;53.068;18.234;2023-01-29T10:25:17;31.00;;;13.20;;
21356;SDS011;10836;53.068;18.234;2023-01-29T10:27:47;26.53;;;13.63;;
21356;SDS011;10836;53.068;18.234;2023-01-29T10:30:33;25.30;;;14.30;;
21356;SDS011;10836;53.068;18.234;2023-01-29T10:33:05;25.93;;;14.03;;
21356;SDS011;10836;53.068;18.234;2023-01-29T10:35:41;27.20;;;14.60;;
21356;SDS011;10836;53.068;18.234;2023-01-29T10:38:27;28.60;;;14.37;;
21356;SDS011;10836;53.068;18.234;2023-01-29T10:48:51;27.77;;;14.63;;
21356;SDS011;10836;53.068;18.234;2023-01-29T10:59:37;31.77;;;16.73;;
21356;SDS011;10836;53.068;18.234;2023-01-29T11:02:15;36.20;;;17.10;;
21356;SDS011;10836;53.068;18.234;2023-01-29T11:04:44;38.23;;;17.13;;
21356;SDS011;10836;53.068;18.234;2023-01-29T11:07:11;30.57;;;15.67;;
21356;SDS011;10836;53.068;18.234;2023-01-29T11:09:43;31.13;;;16.73;;
21356;SDS011;10836;53.068;18.234;2023-01-29T11:12:18;31.13;;;17.17;;
21356;SDS011;10836;53.068;18.234;2023-01-29T11:15:04;29.83;;;16.50;;
21356;SDS011;10836;53.068;18.234;2023-01-29T11:17:40;33.23;;;18.03;;
21356;SDS011;10836;53.068;18.234;2023-01-29T11:20:27;34.13;;;16.97;;
21356;SDS011;10836;53.068;18.234;2023-01-29T11:22:56;32.37;;;18.17;;
21356;SDS011;10836;53.068;18.234;2023-01-29T11:25:24;33.50;;;17.60;;
21356;SDS011;10836;53.068;18.234;2023-01-29T11:27:56;32.27;;;16.97;;
21356;SDS011;10836;53.068;18.234;2023-01-29T11:30:31;31.37;;;17.23;;
21356;SDS011;10836;53.068;18.234;2023-01-29T11:35:51;33.30;;;18.10;;
21356;SDS011;10836;53.068;18.234;2023-01-29T11:38:20;33.77;;;19.13;;
21356;SDS011;10836;53.068;18.234;2023-01-29T11:40:50;36.17;;;18.63;;
21356;SDS011;10836;53.068;18.234;2023-01-29T11:45:54;36.30;;;17.83;;
21356;SDS011;10836;53.068;18.234;2023-01-29T11:48:53;31.83;;;16.97;;
21356;SDS011;10836;53.068;18.234;2023-01-29T11:51:37;33.63;;;18.20;;
21356;SDS011;10836;53.068;18.234;2023-01-29T11:54:09;34.63;;;17.63;;
21356;SDS011;10836;53.068;18.234;2023-01-29T11:56:43;34.83;;;18.27;;
21356;SDS011;10836;53.068;18.234;2023-01-29T11:59:45;36.93;;;18.33;;
21356;SDS011;10836;53.068;18.234;2023-01-29T12:04:44;35.43;;;18.00;;
21356;SDS011;10836;53.068;18.234;2023-01-29T12:07:12;36.30;;;18.97;;
21356;SDS011;10836;53.068;18.234;2023-01-29T12:09:47;36.47;;;17.87;;
21356;SDS011;10836;53.068;18.234;2023-01-29T12:15:08;31.47;;;18.37;;
21356;SDS011;10836;53.068;18.234;2023-01-29T12:17:44;36.87;;;19.53;;
21356;SDS011;10836;53.068;18.234;2023-01-29T12:20:21;36.23;;;20.47;;
21356;SDS011;10836;53.068;18.234;2023-01-29T12:22:58;36.13;;;18.47;;
21356;SDS011;10836;53.068;18.234;2023-01-29T12:33:54;39.40;;;18.83;;
21356;SDS011;10836;53.068;18.234;2023-01-29T12:36:47;36.07;;;18.17;;
21356;SDS011;10836;53.068;18.234;2023-01-29T12:39:19;35.00;;;18.33;;
21356;SDS011;10836;53.068;18.234;2023-01-29T12:41:49;34.43;;;18.87;;
21356;SDS011;10836;53.068;18.234;2023-01-29T12:44:24;38.53;;;20.63;;
21356;SDS011;10836;53.068;18.234;2023-01-29T12:47:01;36.87;;;19.67;;
21356;SDS011;10836;53.068;18.234;2023-01-29T12:49:32;38.53;;;20.80;;
21356;SDS011;10836;53.068;18.234;2023-01-29T12:52:08;37.90;;;18.97;;
21356;SDS011;10836;53.068;18.234;2023-01-29T12:54:41;37.90;;;18.93;;
21356;SDS011;10836;53.068;18.234;2023-01-29T13:00:17;37.97;;;17.47;;
21356;SDS011;10836;53.068;18.234;2023-01-29T13:03:07;33.80;;;18.93;;
21356;SDS011;10836;53.068;18.234;2023-01-29T13:05:52;34.57;;;17.50;;
21356;SDS011;10836;53.068;18.234;2023-01-29T13:08:30;35.23;;;18.07;;
21356;SDS011;10836;53.068;18.234;2023-01-29T13:11:22;34.50;;;17.07;;
21356;SDS011;10836;53.068;18.234;2023-01-29T13:13:55;38.60;;;17.33;;
21356;SDS011;10836;53.068;18.234;2023-01-29T13:16:28;35.53;;;18.30;;
21356;SDS011;10836;53.068;18.234;2023-01-29T13:19:01;36.13;;;18.03;;
21356;SDS011;10836;53.068;18.234;2023-01-29T13:21:35;37.90;;;18.73;;
21356;SDS011;10836;53.068;18.234;2023-01-29T13:24:15;37.17;;;18.97;;
21356;SDS011;10836;53.068;18.234;2023-01-29T13:26:46;36.30;;;17.97;;
21356;SDS011;10836;53.068;18.234;2023-01-29T13:29:24;38.73;;;19.67;;
21356;SDS011;10836;53.068;18.234;2023-01-29T13:31:54;35.17;;;18.17;;
21356;SDS011;10836;53.068;18.234;2023-01-29T13:34:23;41.43;;;20.23;;
21356;SDS011;10836;53.068;18.234;2023-01-29T13:36:54;41.10;;;19.90;;
21356;SDS011;10836;53.068;18.234;2023-01-29T13:39:26;38.30;;;19.27;;
21356;SDS011;10836;53.068;18.234;2023-01-29T13:41:55;40.37;;;19.47;;
21356;SDS011;10836;53.068;18.234;2023-01-29T13:44:33;38.03;;;19.37;;
21356;SDS011;10836;53.068;18.234;2023-01-29T13:47:05;44.23;;;21.13;;
21356;SDS011;10836;53.068;18.234;2023-01-29T13:49:56;38.47;;;19.70;;
21356;SDS011;10836;53.068;18.234;2023-01-29T13:52:30;44.60;;;21.47;;
21356;SDS011;10836;53.068;18.234;2023-01-29T13:55:00;39.37;;;19.80;;
21356;SDS011;10836;53.068;18.234;2023-01-29T14:05:43;44.03;;;20.63;;
21356;SDS011;10836;53.068;18.234;2023-01-29T14:13:41;45.80;;;21.20;;
21356;SDS011;10836;53.068;18.234;2023-01-29T14:18:46;43.67;;;20.87;;
21356;SDS011;10836;53.068;18.234;2023-01-29T14:21:32;46.07;;;22.23;;
21356;SDS011;10836;53.068;18.234;2023-01-29T14:26:42;47.57;;;20.77;;
21356;SDS011;10836;53.068;18.234;2023-01-29T14:29:28;45.60;;;20.87;;
21356;SDS011;10836;53.068;18.234;2023-01-29T14:37:30;45.47;;;20.27;;
21356;SDS011;10836;53.068;18.234;2023-01-29T14:40:21;42.87;;;20.50;;
21356;SDS011;10836;53.068;18.234;2023-01-29T14:43:04;45.13;;;20.47;;
21356;SDS011;10836;53.068;18.234;2023-01-29T14:45:34;42.10;;;20.40;;
21356;SDS011;10836;53.068;18.234;2023-01-29T14:56:08;38.33;;;19.10;;
21356;SDS011;10836;53.068;18.234;2023-01-29T14:58:48;38.97;;;18.93;;
21356;SDS011;10836;53.068;18.234;2023-01-29T15:01:20;47.90;;;20.43;;
21356;SDS011;10836;53.068;18.234;2023-01-29T15:03:48;40.33;;;19.03;;
21356;SDS011;10836;53.068;18.234;2023-01-29T15:06:20;49.40;;;20.60;;
21356;SDS011;10836;53.068;18.234;2023-01-29T15:08:55;41.53;;;19.00;;
21356;SDS011;10836;53.068;18.234;2023-01-29T15:11:46;40.77;;;18.53;;
21356;SDS011;10836;53.068;18.234;2023-01-29T15:19:43;37.47;;;17.73;;
21356;SDS011;10836;53.068;18.234;2023-01-29T15:22:17;33.47;;;17.37;;
21356;SDS011;10836;53.068;18.234;2023-01-29T15:24:46;37.27;;;19.23;;
21356;SDS011;10836;53.068;18.234;2023-01-29T15:27:28;40.80;;;19.13;;
21356;SDS011;10836;53.068;18.234;2023-01-29T15:29:56;43.70;;;20.57;;
21356;SDS011;10836;53.068;18.234;2023-01-29T15:32:27;35.47;;;18.67;;
21356;SDS011;10836;53.068;18.234;2023-01-29T15:35:10;37.27;;;20.40;;
21356;SDS011;10836;53.068;18.234;2023-01-29T15:40:53;46.17;;;21.47;;
21356;SDS011;10836;53.068;18.234;2023-01-29T15:43:25;39.57;;;19.87;;
21356;SDS011;10836;53.068;18.234;2023-01-29T15:45:55;40.33;;;20.90;;
21356;SDS011;10836;53.068;18.234;2023-01-29T15:48:43;40.40;;;21.43;;
21356;SDS011;10836;53.068;18.234;2023-01-29T15:51:15;49.70;;;24.60;;
21356;SDS011;10836;53.068;18.234;2023-01-29T15:53:55;47.83;;;23.90;;
21356;SDS011;10836;53.068;18.234;2023-01-29T15:58:59;45.93;;;23.10;;
21356;SDS011;10836;53.068;18.234;2023-01-29T16:01:34;43.80;;;22.97;;
21356;SDS011;10836;53.068;18.234;2023-01-29T16:04:01;45.67;;;22.93;;
21356;SDS011;10836;53.068;18.234;2023-01-29T16:06:34;47.63;;;23.33;;
21356;SDS011;10836;53.068;18.234;2023-01-29T16:09:03;53.00;;;23.80;;
21356;SDS011;10836;53.068;18.234;2023-01-29T16:11:31;49.30;;;22.53;;
21356;SDS011;10836;53.068;18.234;2023-01-29T16:14:00;47.97;;;22.50;;
21356;SDS011;10836;53.068;18.234;2023-01-29T16:16:28;54.73;;;26.83;;
21356;SDS011;10836;53.068;18.234;2023-01-29T16:18:56;45.53;;;21.57;;
21356;SDS011;10836;53.068;18.234;2023-01-29T16:24:04;68.70;;;29.43;;
21356;SDS011;10836;53.068;18.234;2023-01-29T16:26:41;67.63;;;30.40;;
21356;SDS011;10836;53.068;18.234;2023-01-29T16:29:12;64.63;;;29.33;;
21356;SDS011;10836;53.068;18.234;2023-01-29T16:31:41;66.23;;;28.17;;
21356;SDS011;10836;53.068;18.234;2023-01-29T16:34:18;55.93;;;25.47;;
21356;SDS011;10836;53.068;18.234;2023-01-29T16:36:46;55.37;;;26.73;;
21356;SDS011;10836;53.068;18.234;2023-01-29T16:39:25;62.77;;;29.17;;
21356;SDS011;10836;53.068;18.234;2023-01-29T16:42:15;65.37;;;32.50;;
21356;SDS011;10836;53.068;18.234;2023-01-29T16:49:55;53.40;;;25.77;;
21356;SDS011;10836;53.068;18.234;2023-01-29T16:54:57;56.70;;;26.80;;
21356;SDS011;10836;53.068;18.234;2023-01-29T16:57:41;55.37;;;26.57;;
21356;SDS011;10836;53.068;18.234;2023-01-29T17:00:17;55.90;;;26.00;;
21356;SDS011;10836;53.068;18.234;2023-01-29T17:02:47;58.17;;;26.83;;
21356;SDS011;10836;53.068;18.234;2023-01-29T17:05:20;56.50;;;26.63;;
21356;SDS011;10836;53.068;18.234;2023-01-29T17:07:49;61.87;;;27.47;;
21356;SDS011;10836;53.068;18.234;2023-01-29T17:10:17;64.63;;;28.13;;
21356;SDS011;10836;53.068;18.234;2023-01-29T17:13:21;64.03;;;27.93;;
21356;SDS011;10836;53.068;18.234;2023-01-29T17:15:44;59.57;;;25.50;;